createdAt,value
2019-05-18T00:01:44.590Z,93061.14
2019-05-18T00:04:14.300Z,93025.84
2019-05-18T00:06:46.415Z,93002.02
2019-05-18T00:09:16.089Z,93006.01
2019-05-18T00:11:45.854Z,92996.51
2019-05-18T00:14:15.568Z,92987.77
2019-05-18T00:16:46.144Z,92970.27
2019-05-18T00:19:16.079Z,92932.27
2019-05-18T00:21:46.718Z,92914.56
2019-05-18T00:24:16.450Z,92892.45
2019-05-18T00:26:46.210Z,92860.03
2019-05-18T00:29:15.967Z,92834.98
2019-05-18T00:31:46.311Z,92823.52
2019-05-18T00:34:16.073Z,92797.67
2019-05-18T00:36:45.926Z,92774.83
2019-05-18T00:39:16.135Z,92752.97
2019-05-18T00:41:45.897Z,92701.73
2019-05-18T00:44:18.801Z,92661.63
2019-05-18T00:46:48.539Z,92635.12
2019-05-18T00:49:18.318Z,92600.97
2019-05-18T00:51:48.089Z,92556.75
2019-05-18T00:54:20.219Z,92495.23
2019-05-18T00:56:51.694Z,92474.98
2019-05-18T00:59:23.852Z,92434.82
2019-05-18T01:01:53.520Z,92365.84
2019-05-18T01:04:23.320Z,92329.12
2019-05-18T01:06:53.090Z,92305.31
2019-05-18T01:09:22.841Z,92277.95
2019-05-18T01:11:52.639Z,92233.08
2019-05-18T01:14:22.423Z,92259.58
2019-05-18T01:16:53.102Z,92327.55
2019-05-18T01:19:22.830Z,92377.74
2019-05-18T01:21:52.744Z,92404.16
2019-05-18T01:24:22.448Z,92422.78
2019-05-18T01:26:52.198Z,92425.11
2019-05-18T01:29:23.739Z,92393.06
2019-05-18T01:31:53.497Z,92392.70
2019-05-18T01:34:23.233Z,92387.61
2019-05-18T01:36:53.010Z,92378.67
2019-05-18T01:39:22.784Z,92341.09
2019-05-18T01:41:52.520Z,92311.27
2019-05-18T01:44:22.289Z,92196.89
2019-05-18T01:46:52.096Z,92164.22
2019-05-18T01:49:21.831Z,92141.25
2019-05-18T01:51:51.606Z,92069.99
2019-05-18T01:54:21.345Z,92002.73
2019-05-18T01:56:51.081Z,92005.70
2019-05-18T01:59:20.919Z,91956.58
2019-05-18T02:01:50.677Z,91903.06
2019-05-18T02:04:20.741Z,91877.33
2019-05-18T02:06:50.527Z,91835.34
2019-05-18T02:09:20.333Z,91806.50
2019-05-18T02:11:51.001Z,91816.39
2019-05-18T02:14:20.845Z,91838.83
2019-05-18T02:16:50.714Z,91766.55
2019-05-18T02:19:20.469Z,91747.64
2019-05-18T02:21:50.396Z,91739.31
2019-05-18T02:24:20.098Z,91760.31
2019-05-18T02:26:49.838Z,91738.47
2019-05-18T02:29:19.688Z,91648.54
2019-05-18T02:31:49.453Z,91597.67
2019-05-18T02:34:19.188Z,91536.27
2019-05-18T02:36:49.036Z,91493.23
2019-05-18T02:39:19.242Z,91433.65
2019-05-18T02:41:49.006Z,91374.56
2019-05-18T02:44:22.028Z,91307.92
2019-05-18T02:46:52.230Z,91243.17
2019-05-18T02:49:21.985Z,91153.48
2019-05-18T02:51:51.800Z,91117.75
2019-05-18T02:54:21.651Z,91075.82
2019-05-18T02:56:51.387Z,91072.31
2019-05-18T02:59:23.625Z,91130.34
2019-05-18T03:01:55.912Z,91214.38
2019-05-18T03:04:27.330Z,91239.94
2019-05-18T03:06:57.116Z,91216.70
2019-05-18T03:09:26.843Z,91165.88
2019-05-18T03:11:56.687Z,91180.94
2019-05-18T03:14:28.799Z,91134.73
2019-05-18T03:16:58.530Z,91100.95
2019-05-18T03:19:28.281Z,90988.25
2019-05-18T03:22:01.362Z,90919.12
2019-05-18T03:24:34.309Z,90904.83
2019-05-18T03:27:04.054Z,90920.58
2019-05-18T03:29:33.872Z,90897.55
2019-05-18T03:32:03.799Z,90915.16
2019-05-18T03:34:33.576Z,90949.09
2019-05-18T03:37:03.374Z,90998.08
2019-05-18T03:39:33.194Z,91019.04
2019-05-18T03:42:03.029Z,91076.00
2019-05-18T03:44:33.623Z,91144.76
2019-05-18T03:47:05.170Z,91270.39
2019-05-18T03:49:37.496Z,91381.15
2019-05-18T03:52:09.569Z,91491.44
2019-05-18T03:54:41.175Z,91559.26
2019-05-18T03:57:13.013Z,91684.16
2019-05-18T03:59:45.525Z,91692.10
2019-05-18T04:02:15.380Z,91713.81
2019-05-18T04:04:45.925Z,91786.92
2019-05-18T04:07:16.176Z,91861.54
2019-05-18T04:09:47.573Z,91983.36
2019-05-18T04:12:17.327Z,92216.05
2019-05-18T04:14:47.049Z,92276.83
2019-05-18T04:17:20.977Z,92297.36
2019-05-18T04:19:50.779Z,92296.86
2019-05-18T04:22:20.573Z,92364.14
2019-05-18T04:24:50.326Z,92590.89
2019-05-18T04:27:23.885Z,92979.14
2019-05-18T04:29:55.242Z,93100.20
2019-05-18T04:32:27.342Z,93015.61
2019-05-18T04:34:57.385Z,92824.69
2019-05-18T04:37:27.188Z,92528.38
2019-05-18T04:39:56.944Z,92262.30
2019-05-18T04:42:26.925Z,92365.25
2019-05-18T04:44:57.001Z,92562.47
2019-05-18T04:47:26.749Z,92644.20
2019-05-18T04:50:05.239Z,92724.86
2019-05-18T04:52:28.034Z,92655.99
2019-05-18T04:54:57.809Z,92701.27
2019-05-18T04:57:27.665Z,92679.94
2019-05-18T04:59:57.494Z,92745.28
2019-05-18T05:02:27.330Z,92739.56
2019-05-18T05:04:57.144Z,92733.08
2019-05-18T05:07:26.928Z,92656.44
2019-05-18T05:09:56.868Z,92614.41
2019-05-18T05:12:26.903Z,92626.11
2019-05-18T05:14:56.704Z,92625.84
2019-05-18T05:17:26.456Z,92583.11
2019-05-18T05:19:56.260Z,92643.98
2019-05-18T05:22:26.090Z,92703.19
2019-05-18T05:24:58.418Z,92682.73
2019-05-18T05:27:28.281Z,92653.22
2019-05-18T05:29:58.184Z,92725.07
2019-05-18T05:32:28.176Z,92744.00
2019-05-18T05:34:58.935Z,92727.71
2019-05-18T05:37:28.745Z,92731.31
2019-05-18T05:39:58.559Z,92702.77
2019-05-18T05:42:28.363Z,92672.77
2019-05-18T05:44:58.191Z,92715.34
2019-05-18T05:47:27.949Z,92578.60
2019-05-18T05:49:57.816Z,92392.19
2019-05-18T05:52:27.662Z,92396.42
2019-05-18T05:54:57.886Z,92504.95
2019-05-18T05:57:28.083Z,92519.14
2019-05-18T06:00:00.943Z,92498.84
2019-05-18T06:02:31.488Z,92418.12
2019-05-18T06:05:01.144Z,92431.79
2019-05-18T06:07:30.941Z,92445.92
2019-05-18T06:10:01.124Z,92485.91
2019-05-18T06:12:31.020Z,92360.23
2019-05-18T06:15:00.803Z,92637.47
2019-05-18T06:17:30.610Z,92613.95
2019-05-18T06:20:00.381Z,92730.59
2019-05-18T06:22:30.182Z,92707.56
2019-05-18T06:24:59.932Z,92763.95
2019-05-18T06:27:29.810Z,92730.23
2019-05-18T06:29:59.634Z,92794.36
2019-05-18T06:32:29.384Z,92784.67
2019-05-18T06:34:59.161Z,92761.00
2019-05-18T06:37:28.956Z,92718.91
2019-05-18T06:39:58.846Z,92807.94
2019-05-18T06:42:28.656Z,92886.37
2019-05-18T06:44:59.371Z,92891.16
2019-05-18T06:47:29.129Z,92929.27
2019-05-18T06:49:58.887Z,92857.14
2019-05-18T06:52:31.763Z,92862.14
2019-05-18T06:55:02.191Z,92797.64
2019-05-18T06:57:32.285Z,92813.95
2019-05-18T07:00:04.175Z,92886.19
2019-05-18T07:02:34.973Z,92941.23
2019-05-18T07:05:06.041Z,92941.80
2019-05-18T07:07:35.878Z,92955.75
2019-05-18T07:10:07.049Z,92931.47
2019-05-18T07:12:36.883Z,92854.59
2019-05-18T07:15:08.382Z,92838.58
2019-05-18T07:17:38.996Z,92878.34
2019-05-18T07:20:11.814Z,92811.91
2019-05-18T07:22:42.018Z,92787.10
2019-05-18T07:25:12.608Z,92729.79
2019-05-18T07:27:44.160Z,92705.41
2019-05-18T07:30:15.697Z,92629.53
2019-05-18T07:32:45.642Z,92533.06
2019-05-18T07:35:15.843Z,92559.42
2019-05-18T07:37:45.566Z,92546.16
2019-05-18T07:40:15.326Z,92516.03
2019-05-18T07:42:45.367Z,92514.70
2019-05-18T07:45:15.374Z,92444.17
2019-05-18T07:47:45.144Z,92393.30
2019-05-18T07:50:15.067Z,92410.34
2019-05-18T07:52:44.817Z,92250.43
2019-05-18T07:55:15.025Z,92255.02
2019-05-18T07:57:44.895Z,92258.98
2019-05-18T08:00:15.345Z,92251.17
2019-05-18T08:02:46.084Z,92199.86
2019-05-18T08:05:16.725Z,92200.70
2019-05-18T08:07:46.645Z,92195.59
2019-05-18T08:10:19.507Z,92228.09
2019-05-18T08:12:49.264Z,92223.58
2019-05-18T08:15:20.245Z,92276.73
2019-05-18T08:17:50.957Z,92366.14
2019-05-18T08:20:20.888Z,92407.72
2019-05-18T08:22:52.077Z,92316.30
2019-05-18T08:25:21.936Z,92428.59
2019-05-18T08:27:51.809Z,92484.79
2019-05-18T08:30:21.460Z,92465.39
2019-05-18T08:32:51.298Z,92478.44
2019-05-18T08:35:20.937Z,92441.45
2019-05-18T08:37:50.624Z,92438.84
2019-05-18T08:40:21.393Z,92304.70
2019-05-18T08:42:54.294Z,92427.48
2019-05-18T08:45:24.062Z,92415.13
2019-05-18T08:47:53.876Z,92519.17
2019-05-18T08:50:23.533Z,92592.77
2019-05-18T08:52:53.316Z,92538.63
2019-05-18T08:55:23.083Z,92564.52
2019-05-18T08:57:52.724Z,92654.95
2019-05-18T09:00:23.131Z,92648.72
2019-05-18T09:02:52.961Z,92641.41
2019-05-18T09:05:22.787Z,92627.53
2019-05-18T09:07:52.493Z,92599.03
2019-05-18T09:10:22.353Z,92624.69
2019-05-18T09:12:52.066Z,92617.77
2019-05-18T09:15:21.875Z,92607.89
2019-05-18T09:17:51.662Z,92605.78
2019-05-18T09:20:21.399Z,92511.53
2019-05-18T09:22:51.172Z,92370.23
2019-05-18T09:25:20.971Z,92389.16
2019-05-18T09:27:50.855Z,92387.62
2019-05-18T09:30:23.070Z,92264.55
2019-05-18T09:32:52.850Z,92329.33
2019-05-18T09:35:22.648Z,92310.11
2019-05-18T09:37:52.422Z,92241.16
2019-05-18T09:40:22.284Z,92143.12
2019-05-18T09:42:52.083Z,92085.86
2019-05-18T09:45:24.654Z,92076.77
2019-05-18T09:47:54.462Z,92177.55
2019-05-18T09:50:24.281Z,92202.98
2019-05-18T09:52:53.959Z,92199.57
2019-05-18T09:55:23.728Z,92273.39
2019-05-18T09:57:53.496Z,92319.52
2019-05-18T10:00:23.544Z,92346.30
2019-05-18T10:02:54.764Z,92347.75
2019-05-18T10:05:24.507Z,92316.80
2019-05-18T10:07:54.282Z,92257.43
2019-05-18T10:10:24.052Z,92237.98
2019-05-18T10:12:53.807Z,92296.42
2019-05-18T10:15:24.430Z,92450.97
2019-05-18T10:17:58.405Z,92435.62
2019-05-18T10:20:28.140Z,92402.92
2019-05-18T10:23:12.419Z,92401.78
2019-05-18T10:25:32.782Z,92359.12
2019-05-18T10:28:06.815Z,92224.61
2019-05-18T10:30:38.129Z,92202.94
2019-05-18T10:33:09.909Z,92160.50
2019-05-18T10:35:40.775Z,92125.91
2019-05-18T10:38:12.990Z,91993.84
2019-05-18T10:40:42.870Z,91997.13
2019-05-18T10:43:12.650Z,91863.99
2019-05-18T10:45:45.215Z,91836.23
2019-05-18T10:48:15.477Z,91711.92
2019-05-18T10:50:45.362Z,91611.53
2019-05-18T10:53:27.871Z,91517.25
2019-05-18T10:55:47.530Z,91320.70
2019-05-18T10:58:17.330Z,91270.23
2019-05-18T11:00:48.603Z,91377.25
2019-05-18T11:03:18.394Z,91451.65
2019-05-18T11:05:48.186Z,91518.24
2019-05-18T11:08:17.965Z,91332.33
2019-05-18T11:10:47.749Z,91210.47
2019-05-18T11:13:17.561Z,90998.35
2019-05-18T11:15:47.433Z,91296.09
2019-05-18T11:18:17.236Z,91539.38
2019-05-18T11:20:47.067Z,91599.39
2019-05-18T11:23:16.893Z,92180.48
2019-05-18T11:25:46.712Z,91675.76
2019-05-18T11:28:16.505Z,91618.52
2019-05-18T11:30:46.305Z,91553.67
2019-05-18T11:33:16.074Z,91315.41
2019-05-18T11:35:45.928Z,91099.63
2019-05-18T11:38:15.770Z,90773.32
2019-05-18T11:40:45.531Z,90410.22
2019-05-18T11:43:15.393Z,90207.23
2019-05-18T11:45:45.196Z,90049.03
2019-05-18T11:48:14.991Z,89756.02
2019-05-18T11:50:44.928Z,89461.63
2019-05-18T11:53:14.739Z,89261.81
2019-05-18T11:55:44.505Z,89466.07
2019-05-18T11:58:14.409Z,89601.23
2019-05-18T12:00:44.186Z,89747.48
2019-05-18T12:03:13.988Z,89571.17
2019-05-18T12:05:43.949Z,89771.39
2019-05-18T12:08:13.737Z,89893.31
2019-05-18T12:10:43.486Z,89982.38
2019-05-18T12:13:13.376Z,89842.11
2019-05-18T12:15:43.143Z,89858.13
2019-05-18T12:18:12.926Z,89636.55
2019-05-18T12:20:43.243Z,89285.16
2019-05-18T12:23:13.054Z,89130.80
2019-05-18T12:25:42.942Z,88979.21
2019-05-18T12:28:13.042Z,89004.30
2019-05-18T12:30:42.883Z,89218.10
2019-05-18T12:33:12.675Z,89059.33
2019-05-18T12:35:42.577Z,89297.38
2019-05-18T12:38:12.393Z,89239.36
2019-05-18T12:40:42.218Z,89046.09
2019-05-18T12:43:14.778Z,88831.75
2019-05-18T12:45:44.560Z,88845.21
2019-05-18T12:48:15.240Z,88771.16
2019-05-18T12:50:44.975Z,88433.41
2019-05-18T12:53:17.539Z,88173.63
2019-05-18T12:55:46.257Z,88008.04
2019-05-18T12:58:16.094Z,88118.38
2019-05-18T13:00:45.888Z,87800.50
2019-05-18T13:03:15.663Z,87805.92
2019-05-18T13:05:45.490Z,87765.48
2019-05-18T13:08:15.275Z,87995.23
2019-05-18T13:10:45.069Z,88423.92
2019-05-18T13:13:14.889Z,88423.92
2019-05-18T13:15:44.715Z,89206.09
2019-05-18T13:18:14.503Z,89307.83
2019-05-18T13:20:44.297Z,89549.91
2019-05-18T13:23:14.091Z,89557.72
2019-05-18T13:25:43.755Z,89429.94
2019-05-18T13:28:13.576Z,89112.58
2019-05-18T13:30:43.390Z,89082.27
2019-05-18T13:33:13.198Z,89108.18
2019-05-18T13:35:45.501Z,89215.98
2019-05-18T13:38:14.595Z,89220.48
2019-05-18T13:40:44.382Z,89240.38
2019-05-18T13:43:14.271Z,89250.21
2019-05-18T13:45:44.109Z,89292.23
2019-05-18T13:48:13.938Z,89291.87
2019-05-18T13:50:44.822Z,89102.86
2019-05-18T13:53:14.877Z,88899.86
2019-05-18T13:55:44.624Z,88870.53
2019-05-18T13:58:14.472Z,88819.06
2019-05-18T14:00:44.270Z,88659.45
2019-05-18T14:03:14.128Z,88550.73
2019-05-18T14:05:44.000Z,88392.09
2019-05-18T14:08:15.635Z,88115.34
2019-05-18T14:10:47.329Z,88211.78
2019-05-18T14:13:17.174Z,88410.99
2019-05-18T14:15:46.942Z,88659.41
2019-05-18T14:18:16.723Z,88746.81
2019-05-18T14:20:46.579Z,88895.61
2019-05-18T14:23:16.558Z,89156.45
2019-05-18T14:25:47.879Z,89103.09
2019-05-18T14:28:17.677Z,89363.58
2019-05-18T14:30:47.845Z,89579.44
2019-05-18T14:33:17.633Z,89677.26
2019-05-18T14:35:47.473Z,89859.56
2019-05-18T14:38:17.384Z,90017.74
2019-05-18T14:40:47.252Z,90247.71
2019-05-18T14:43:18.403Z,90358.27
2019-05-18T14:45:49.321Z,90421.12
2019-05-18T14:48:19.486Z,90429.40
2019-05-18T14:50:49.762Z,90339.66
2019-05-18T14:53:20.571Z,90345.84
2019-05-18T14:55:50.452Z,90289.31
2019-05-18T14:58:20.575Z,90260.31
2019-05-18T15:00:50.393Z,89939.84
2019-05-18T15:03:20.189Z,89766.44
2019-05-18T15:05:50.055Z,89890.17
2019-05-18T15:08:19.850Z,89859.00
2019-05-18T15:10:49.908Z,89851.12
2019-05-18T15:13:19.722Z,89779.77
2019-05-18T15:15:49.525Z,89714.23
2019-05-18T15:18:19.447Z,89706.56
2019-05-18T15:20:49.271Z,89855.77
2019-05-18T15:23:19.147Z,89897.81
2019-05-18T15:25:51.163Z,89930.84
2019-05-18T15:28:21.523Z,90139.86
2019-05-18T15:30:52.340Z,90228.08
2019-05-18T15:33:22.143Z,90275.73
2019-05-18T15:35:52.331Z,90102.94
2019-05-18T15:38:22.100Z,90261.44
2019-05-18T15:40:51.907Z,90353.94
2019-05-18T15:43:21.796Z,90281.00
2019-05-18T15:45:51.593Z,90324.64
2019-05-18T15:48:21.450Z,89930.13
2019-05-18T15:50:51.403Z,90148.23
2019-05-18T15:53:21.234Z,90309.13
2019-05-18T15:56:04.830Z,90417.09
2019-05-18T15:58:22.618Z,90468.14
2019-05-18T16:00:52.518Z,90525.49
2019-05-18T16:03:22.274Z,90599.53
2019-05-18T16:05:52.153Z,90672.66
2019-05-18T16:08:21.926Z,90727.94
2019-05-18T16:10:51.738Z,90790.70
2019-05-18T16:13:21.541Z,90824.69
2019-05-18T16:15:51.335Z,90665.89
2019-05-18T16:18:21.233Z,90727.57
2019-05-18T16:20:51.087Z,90747.95
2019-05-18T16:23:20.869Z,90570.69
2019-05-18T16:25:50.728Z,90552.50
2019-05-18T16:28:20.550Z,90513.70
2019-05-18T16:30:50.392Z,90499.20
2019-05-18T16:33:20.195Z,90455.81
2019-05-18T16:35:50.045Z,90398.24
2019-05-18T16:38:19.932Z,90366.22
2019-05-18T16:40:49.745Z,90352.94
2019-05-18T16:43:19.654Z,90329.06
2019-05-18T16:45:49.444Z,90305.47
2019-05-18T16:48:19.215Z,90291.16
2019-05-18T16:50:49.072Z,90267.42
2019-05-18T16:53:18.906Z,90267.15
2019-05-18T16:55:48.707Z,90282.48
2019-05-18T16:58:18.627Z,90303.19
2019-05-18T17:00:48.684Z,90360.39
2019-05-18T17:03:19.027Z,90395.48
2019-05-18T17:05:48.858Z,90447.86
2019-05-18T17:08:18.673Z,90537.52
2019-05-18T17:10:48.502Z,90592.48
2019-05-18T17:13:18.399Z,90646.70
2019-05-18T17:15:48.223Z,90683.66
2019-05-18T17:18:18.047Z,90730.30
2019-05-18T17:20:47.829Z,90769.45
2019-05-18T17:23:17.616Z,90782.02
2019-05-18T17:25:47.304Z,90824.27
2019-05-18T17:28:20.227Z,90866.95
2019-05-18T17:30:50.032Z,90912.69
2019-05-18T17:33:19.833Z,90970.61
2019-05-18T17:35:59.745Z,91026.28
2019-05-18T17:38:21.204Z,91072.78
2019-05-18T17:40:50.985Z,91119.02
2019-05-18T17:43:22.950Z,91126.59
2019-05-18T17:45:52.806Z,91128.66
2019-05-18T17:48:22.929Z,91129.39
2019-05-18T17:50:52.815Z,91111.61
2019-05-18T17:53:22.658Z,91120.47
2019-05-18T17:55:52.472Z,91126.34
2019-05-18T17:58:22.333Z,91139.21
2019-05-18T18:00:54.546Z,91137.66
2019-05-18T18:03:24.527Z,91154.66
2019-05-18T18:05:54.378Z,91144.25
2019-05-18T18:08:24.183Z,91154.66
2019-05-18T18:10:55.484Z,91095.08
2019-05-18T18:13:25.322Z,91270.59
2019-05-18T18:15:55.163Z,91122.63
2019-05-18T18:18:24.981Z,91150.69
2019-05-18T18:20:54.682Z,91168.86
2019-05-18T18:23:24.512Z,91221.08
2019-05-18T18:25:54.414Z,91267.36
2019-05-18T18:28:24.963Z,91303.02
2019-05-18T18:30:55.272Z,91342.09
2019-05-18T18:33:25.085Z,91382.63
2019-05-18T18:35:54.938Z,91424.30
2019-05-18T18:38:24.740Z,91447.84
2019-05-18T18:40:54.565Z,91477.73
2019-05-18T18:43:24.511Z,91505.63
2019-05-18T18:45:54.318Z,91535.81
2019-05-18T18:48:26.408Z,91534.92
2019-05-18T18:50:55.689Z,91573.52
2019-05-18T18:53:25.555Z,91613.95
2019-05-18T18:55:55.600Z,91658.73
2019-05-18T18:58:27.349Z,91695.01
2019-05-18T19:00:57.577Z,91719.39
2019-05-18T19:03:27.708Z,91755.98
2019-05-18T19:05:58.750Z,91783.47
2019-05-18T19:08:37.263Z,91821.23
2019-05-18T19:11:08.401Z,91851.03
2019-05-18T19:13:38.662Z,91874.69
2019-05-18T19:16:08.509Z,91906.89
2019-05-18T19:18:39.326Z,91931.41
2019-05-18T19:21:10.247Z,91948.16
2019-05-18T19:23:40.450Z,91970.77
2019-05-18T19:26:11.389Z,92000.35
2019-05-18T19:28:42.289Z,92037.13
2019-05-18T19:31:12.235Z,92063.44
2019-05-18T19:33:42.154Z,92107.80
2019-05-18T19:36:12.024Z,92132.28
2019-05-18T19:38:43.022Z,92160.59
2019-05-18T19:41:15.932Z,92174.25
2019-05-18T19:43:46.155Z,92203.66
2019-05-18T19:46:15.929Z,92230.52
2019-05-18T19:48:48.044Z,92272.02
2019-05-18T19:51:17.877Z,92304.58
2019-05-18T19:53:51.928Z,92328.55
2019-05-18T19:56:22.809Z,92335.19
2019-05-18T19:58:53.088Z,92363.18
2019-05-18T20:01:22.989Z,92388.54
2019-05-18T20:03:54.087Z,92394.66
2019-05-18T20:06:24.370Z,92439.72
2019-05-18T20:08:54.134Z,92465.59
2019-05-18T20:11:24.151Z,92483.98
2019-05-18T20:13:57.263Z,92496.13
2019-05-18T20:16:28.387Z,92520.41
2019-05-18T20:18:58.206Z,92542.77
2019-05-18T20:21:38.887Z,92562.27
2019-05-18T20:24:09.958Z,92588.66
2019-05-18T20:26:44.377Z,92612.97
2019-05-18T20:29:14.272Z,92627.97
2019-05-18T20:31:44.184Z,92655.27
2019-05-18T20:34:16.785Z,92673.80
2019-05-18T20:36:48.708Z,92669.17
2019-05-18T20:39:19.626Z,92667.72
2019-05-18T20:41:50.540Z,92673.28
2019-05-18T20:44:20.838Z,92676.41
2019-05-18T20:46:51.175Z,92688.27
2019-05-18T20:49:20.885Z,92687.12
2019-05-18T20:51:50.719Z,92689.47
2019-05-18T20:54:20.558Z,92703.57
2019-05-18T20:56:54.818Z,92701.32
2019-05-18T20:59:28.567Z,92706.81
2019-05-18T21:01:58.464Z,92711.66
2019-05-18T21:04:28.282Z,92723.00
2019-05-18T21:06:58.245Z,92727.59
2019-05-18T21:09:29.205Z,92732.95
2019-05-18T21:11:59.087Z,92725.34
2019-05-18T21:14:29.905Z,92729.94
2019-05-18T21:16:59.699Z,92737.77
2019-05-18T21:19:29.552Z,92742.05
2019-05-18T21:21:59.823Z,92744.14
2019-05-18T21:24:32.013Z,92749.02
2019-05-18T21:27:02.140Z,92747.39
2019-05-18T21:29:31.968Z,92745.91
2019-05-18T21:32:01.856Z,92746.13
2019-05-18T21:34:31.630Z,92739.59
2019-05-18T21:37:01.416Z,92736.13
2019-05-18T21:39:31.200Z,92724.81
2019-05-18T21:42:00.991Z,92736.63
2019-05-18T21:44:30.813Z,92739.11
2019-05-18T21:47:00.625Z,92733.14
2019-05-18T21:49:30.468Z,92734.73
2019-05-18T21:52:00.309Z,92744.63
2019-05-18T21:54:30.123Z,92742.69
2019-05-18T21:57:00.840Z,92744.15
2019-05-18T21:59:30.691Z,92742.02
2019-05-18T22:02:00.494Z,92744.77
2019-05-18T22:04:30.329Z,92735.28
2019-05-18T22:07:00.312Z,92732.99
2019-05-18T22:09:30.189Z,92735.64
2019-05-18T22:12:02.020Z,92735.02
2019-05-18T22:14:31.881Z,92745.97
2019-05-18T22:17:01.675Z,92745.78
2019-05-18T22:19:34.160Z,92746.36
2019-05-18T22:22:03.992Z,92746.55
2019-05-18T22:24:34.159Z,92736.19
2019-05-18T22:27:03.930Z,92735.47
2019-05-18T22:29:33.748Z,92731.58
2019-05-18T22:32:03.549Z,92733.27
2019-05-18T22:34:33.333Z,92733.02
2019-05-18T22:37:03.150Z,92731.95
2019-05-18T22:39:32.940Z,92723.41
2019-05-18T22:42:02.824Z,92712.34
2019-05-18T22:44:32.644Z,92711.70
2019-05-18T22:47:02.449Z,92710.09
2019-05-18T22:49:32.218Z,92701.95
2019-05-18T22:52:02.024Z,92695.22
2019-05-18T22:54:31.835Z,92697.92
2019-05-18T22:57:01.712Z,92688.88
2019-05-18T22:59:31.529Z,92672.51
2019-05-18T23:02:01.337Z,92668.53
2019-05-18T23:04:31.164Z,92671.75
2019-05-18T23:07:01.053Z,92654.99
2019-05-18T23:09:30.827Z,92653.02
2019-05-18T23:12:00.621Z,92651.61
2019-05-18T23:14:30.488Z,92647.55
2019-05-18T23:17:00.305Z,92648.80
2019-05-18T23:19:30.105Z,92639.07
2019-05-18T23:21:59.926Z,92651.88
2019-05-18T23:24:29.684Z,92654.06
2019-05-18T23:26:59.489Z,92655.26
2019-05-18T23:29:29.304Z,92647.12
2019-05-18T23:31:59.088Z,92650.61
2019-05-18T23:34:28.865Z,92656.02
2019-05-18T23:36:58.672Z,92657.47
2019-05-18T23:39:28.444Z,92638.84
2019-05-18T23:41:58.233Z,92635.78
2019-05-18T23:44:28.063Z,92631.21
2019-05-18T23:46:57.829Z,92621.97
2019-05-18T23:49:27.680Z,92585.91
2019-05-18T23:51:57.895Z,92583.81
2019-05-18T23:54:27.682Z,92563.03
2019-05-18T23:56:57.465Z,92555.83
2019-05-18T23:59:27.283Z,92534.44
